Time;durP1;ratioP1;P1;durP2;ratioP2;P2;SDS_P1;SDS_P2;PMS_P1;PMS_P2;Temp;Humidity;BMP_temperature;BMP_pressure;BME280_temperature;BME280_humidity;BME280_pressure;Samples;Min_cycle;Max_cycle;Signal;HPM_P1;HPM_P2
2021/09/20 00:01:32;;;;;;;13.37;7.97;;;10.50;71.10;;;;;;5015336;28;20261;-58
2021/09/20 00:03:58;;;;;;;10.60;7.27;;;10.50;99.90;;;;;;5015348;28;20241;-59
2021/09/20 00:06:25;;;;;;;9.87;7.03;;;10.50;99.90;;;;;;5015140;28;20281;-56
2021/09/20 00:08:51;;;;;;;9.27;7.47;;;10.40;99.90;;;;;;5015287;28;20209;-58
2021/09/20 00:11:18;;;;;;;11.00;7.43;;;10.30;99.90;;;;;;5015401;28;20254;-58
2021/09/20 00:13:45;;;;;;;10.47;7.17;;;10.30;1.00;;;;;;5015135;28;20265;-57
2021/09/20 00:16:12;;;;;;;10.17;7.93;;;10.30;12.40;;;;;;5014847;28;20777;-59
2021/09/20 00:18:40;;;;;;;10.43;8.30;;;10.10;1.00;;;;;;5015210;28;20207;-58
2021/09/20 00:21:07;;;;;;;10.07;7.77;;;10.00;1.00;;;;;;5015082;28;20260;-56
2021/09/20 00:23:33;;;;;;;10.43;8.40;;;9.90;67.30;;;;;;5015048;28;20214;-55
2021/09/20 00:26:00;;;;;;;10.60;7.73;;;9.90;99.90;;;;;;5014657;28;20275;-58
2021/09/20 00:28:27;;;;;;;10.17;7.50;;;10.00;99.90;;;;;;5014724;28;20260;-56
2021/09/20 00:30:54;;;;;;;8.83;7.10;;;10.00;99.90;;;;;;5015091;28;20300;-56
2021/09/20 00:33:21;;;;;;;9.50;6.97;;;10.00;99.90;;;;;;5014818;28;20214;-60
2021/09/20 00:35:49;;;;;;;10.10;7.60;;;10.00;77.90;;;;;;5014484;28;20268;-57
2021/09/20 00:38:16;;;;;;;9.40;7.80;;;10.00;99.90;;;;;;5014468;28;20231;-60
2021/09/20 00:40:42;;;;;;;9.53;7.03;;;9.90;99.90;;;;;;5014679;28;20567;-58
2021/09/20 00:43:09;;;;;;;10.30;8.00;;;9.90;12.70;;;;;;5014581;28;20233;-56
2021/09/20 00:45:36;;;;;;;10.87;7.57;;;9.90;99.90;;;;;;5014284;28;20214;-60
2021/09/20 00:48:03;;;;;;;13.20;8.53;;;9.90;99.90;;;;;;5014722;28;20230;-59
2021/09/20 00:50:30;;;;;;;12.33;8.03;;;9.90;99.90;;;;;;5014370;28;20710;-54
2021/09/20 00:52:58;;;;;;;10.23;7.87;;;9.80;1.00;;;;;;5014804;28;20264;-59
2021/09/20 00:55:25;;;;;;;10.63;8.17;;;9.90;1.00;;;;;;5014093;28;20284;-56
2021/09/20 00:57:52;;;;;;;10.50;8.17;;;9.90;1.00;;;;;;5014131;28;20242;-58
2021/09/20 01:00:19;;;;;;;13.53;9.10;;;9.90;1.00;;;;;;5014727;28;20610;-56
2021/09/20 01:02:46;;;;;;;11.60;8.00;;;10.00;1.00;;;;;;5014491;28;20206;-59
2021/09/20 01:05:13;;;;;;;11.83;8.73;;;10.00;1.00;;;;;;5014076;28;20268;-58
2021/09/20 01:07:40;;;;;;;14.37;8.30;;;10.10;99.90;;;;;;5014007;28;20230;-60
2021/09/20 01:10:11;;;;;;;11.30;8.33;;;10.10;99.90;;;;;;5014031;28;20237;-57
2021/09/20 01:12:37;;;;;;;11.07;8.50;;;10.20;1.00;;;;;;5014391;28;20269;-58
2021/09/20 01:15:05;;;;;;;10.20;7.87;;;10.20;99.90;;;;;;5013761;28;20219;-60
2021/09/20 01:17:32;;;;;;;12.57;8.83;;;10.20;99.90;;;;;;5014161;28;20231;-59
2021/09/20 01:19:59;;;;;;;12.03;8.97;;;10.20;99.90;;;;;;5014073;28;20253;-57
2021/09/20 01:22:27;;;;;;;13.60;9.03;;;10.20;99.90;;;;;;5013944;28;20214;-59
2021/09/20 01:24:55;;;;;;;15.17;9.07;;;10.20;1.00;;;;;;5013483;28;20210;-59
2021/09/20 01:27:23;;;;;;;11.47;8.33;;;10.30;1.00;;;;;;5013954;28;20241;-58
2021/09/20 01:29:50;;;;;;;10.90;8.50;;;10.30;99.90;;;;;;5013972;28;20227;-56
2021/09/20 01:32:17;;;;;;;10.63;8.33;;;10.30;99.90;;;;;;5013851;28;20559;-57
2021/09/20 01:34:44;;;;;;;12.60;8.57;;;10.30;99.90;;;;;;5013493;28;20210;-58
2021/09/20 01:37:11;;;;;;;9.87;7.83;;;10.40;1.00;;;;;;5013421;28;20289;-59
2021/09/20 01:39:38;;;;;;;11.07;8.93;;;10.40;99.90;;;;;;5013995;28;20307;-57
2021/09/20 01:42:07;;;;;;;14.67;9.10;;;10.50;99.90;;;;;;5013650;28;20214;-58
2021/09/20 01:44:34;;;;;;;10.80;9.00;;;10.50;1.00;;;;;;5013495;28;20245;-57
2021/09/20 01:47:01;;;;;;;10.63;7.97;;;10.50;1.00;;;;;;5013523;28;20231;-56
2021/09/20 01:49:28;;;;;;;14.27;9.23;;;10.50;99.90;;;;;;5013386;28;20206;-57
2021/09/20 01:51:56;;;;;;;13.17;9.33;;;10.50;99.90;;;;;;5013174;28;20215;-53
2021/09/20 01:54:23;;;;;;;11.57;8.97;;;10.50;99.90;;;;;;5013507;28;20211;-56
2021/09/20 01:56:50;;;;;;;11.57;8.77;;;10.50;99.90;;;;;;5013022;28;20331;-58
2021/09/20 01:59:18;;;;;;;11.07;9.03;;;10.50;20.20;;;;;;5013391;28;20215;-56
2021/09/20 02:01:45;;;;;;;14.27;9.83;;;10.40;1.00;;;;;;5013240;28;20214;-59
2021/09/20 02:04:12;;;;;;;13.00;8.97;;;10.50;99.90;;;;;;5013118;28;20242;-60
2021/09/20 02:06:38;;;;;;;11.23;8.47;;;10.50;1.00;;;;;;5012665;28;20632;-57
2021/09/20 02:09:06;;;;;;;11.10;8.30;;;10.50;1.00;;;;;;5013025;28;20214;-59
2021/09/20 02:11:33;;;;;;;12.17;9.43;;;10.50;1.00;;;;;;5013186;28;20321;-57
2021/09/20 02:14:00;;;;;;;11.80;8.47;;;10.60;99.90;;;;;;5012930;28;20301;-55
2021/09/20 02:16:28;;;;;;;13.07;9.07;;;10.50;99.90;;;;;;5012696;28;20281;-56
2021/09/20 02:18:55;;;;;;;12.83;8.63;;;10.50;99.90;;;;;;5012765;28;20210;-59
2021/09/20 02:21:22;;;;;;;12.70;8.43;;;10.50;99.90;;;;;;5012309;28;20203;-60
2021/09/20 02:23:49;;;;;;;12.40;9.17;;;10.50;99.90;;;;;;5013277;28;20210;-59
2021/09/20 02:26:15;;;;;;;12.47;8.63;;;10.50;99.90;;;;;;5012596;28;20230;-57
2021/09/20 02:28:42;;;;;;;10.43;7.73;;;10.50;1.00;;;;;;5012886;28;20211;-57
2021/09/20 02:31:10;;;;;;;12.43;8.93;;;10.50;1.00;;;;;;5012660;28;20227;-56
2021/09/20 02:33:39;;;;;;;11.27;8.60;;;10.50;99.90;;;;;;5012636;28;20211;-59
2021/09/20 02:36:07;;;;;;;11.50;8.77;;;10.60;99.90;;;;;;5012080;28;20730;-58
2021/09/20 02:38:34;;;;;;;10.40;8.27;;;10.60;82.20;;;;;;5012859;28;20280;-59
2021/09/20 02:41:01;;;;;;;11.77;8.63;;;10.60;1.00;;;;;;5012605;28;20265;-57
2021/09/20 02:43:28;;;;;;;11.67;8.43;;;10.60;1.00;;;;;;5012599;28;20672;-59
2021/09/20 02:45:55;;;;;;;12.60;8.80;;;10.60;1.00;;;;;;5011951;28;20672;-58
2021/09/20 02:48:22;;;;;;;12.57;8.53;;;10.60;1.00;;;;;;5012556;28;20683;-59
2021/09/20 02:50:50;;;;;;;12.63;8.40;;;10.60;99.90;;;;;;5012358;28;20609;-56
2021/09/20 02:53:17;;;;;;;10.80;8.37;;;10.50;99.90;;;;;;5012644;28;20216;-56
2021/09/20 02:55:44;;;;;;;9.73;8.10;;;10.50;99.90;;;;;;5012072;28;20248;-56
2021/09/20 02:58:11;;;;;;;13.13;9.60;;;10.50;99.90;;;;;;5012475;28;20242;-58
2021/09/20 03:00:38;;;;;;;9.73;7.80;;;10.50;99.90;;;;;;5012228;28;20202;-58
2021/09/20 03:03:07;;;;;;;11.33;8.73;;;10.50;99.90;;;;;;5012514;28;20206;-57
2021/09/20 03:05:34;;;;;;;10.93;8.33;;;10.60;99.90;;;;;;5011812;28;20752;-57
2021/09/20 03:08:02;;;;;;;9.87;8.10;;;10.50;99.90;;;;;;5012119;28;20719;-59
2021/09/20 03:10:29;;;;;;;13.30;9.53;;;10.50;99.90;;;;;;5012357;28;20231;-57
2021/09/20 03:12:56;;;;;;;10.37;8.40;;;10.50;99.90;;;;;;5012169;28;20284;-56
2021/09/20 03:15:23;;;;;;;11.87;8.97;;;10.50;99.90;;;;;;5011780;28;20214;-56
2021/09/20 03:17:49;;;;;;;11.63;8.50;;;10.50;99.90;;;;;;5012181;28;20227;-57
2021/09/20 03:20:17;;;;;;;11.50;8.77;;;10.50;99.90;;;;;;5012029;28;20671;-56
2021/09/20 03:22:44;;;;;;;9.20;8.10;;;10.40;99.90;;;;;;5012175;28;20242;-58
2021/09/20 03:25:14;;;;;;;11.17;8.93;;;10.40;99.90;;;;;;5011821;28;20211;-58
2021/09/20 03:27:41;;;;;;;13.83;8.70;;;10.40;99.90;;;;;;5011889;28;20231;-56
2021/09/20 03:30:10;;;;;;;10.27;8.10;;;10.40;99.90;;;;;;5012222;28;20641;-58
2021/09/20 03:32:37;;;;;;;12.30;8.30;;;10.50;99.90;;;;;;5015182;28;20202;-58
2021/09/20 03:35:04;;;;;;;10.97;8.37;;;10.50;99.90;;;;;;5015470;28;20712;-58
2021/09/20 03:37:30;;;;;;;9.40;8.23;;;10.60;99.90;;;;;;5015953;28;20231;-56
2021/09/20 03:39:57;;;;;;;11.23;7.93;;;10.60;99.90;;;;;;5015758;28;20261;-59
2021/09/20 03:42:25;;;;;;;10.43;8.33;;;10.70;1.00;;;;;;5015657;28;20226;-58
2021/09/20 03:44:52;;;;;;;13.83;7.93;;;10.70;91.00;;;;;;5015723;28;20215;-59
2021/09/20 03:47:19;;;;;;;9.60;8.17;;;10.80;59.50;;;;;;5015796;28;20365;-59
2021/09/20 03:49:45;;;;;;;10.83;8.07;;;10.80;1.00;;;;;;5015591;28;20210;-58
2021/09/20 03:52:12;;;;;;;10.90;8.73;;;10.90;1.00;;;;;;5015700;28;20664;-58
2021/09/20 03:54:38;;;;;;;11.17;8.50;;;10.80;1.00;;;;;;5015103;28;20268;-59
2021/09/20 03:57:05;;;;;;;11.73;8.30;;;10.80;1.00;;;;;;5015517;28;20238;-55
2021/09/20 03:59:33;;;;;;;11.90;8.23;;;10.80;99.90;;;;;;5015507;28;20211;-58
2021/09/20 04:02:00;;;;;;;9.90;7.93;;;10.70;1.00;;;;;;5015561;28;20202;-58
2021/09/20 04:04:27;;;;;;;10.80;8.37;;;10.80;1.00;;;;;;5015424;28;20217;-58
2021/09/20 04:06:53;;;;;;;10.23;8.20;;;10.80;1.00;;;;;;5015047;28;20238;-59
2021/09/20 04:09:22;;;;;;;10.43;8.30;;;10.70;1.00;;;;;;5015180;28;20301;-59
2021/09/20 04:11:48;;;;;;;10.90;8.00;;;10.70;1.00;;;;;;5020047;28;20218;-60
2021/09/20 04:14:15;;;;;;;9.20;7.30;;;10.70;1.00;;;;;;5034778;28;20617;-58
2021/09/20 04:16:43;;;;;;;11.30;8.47;;;10.70;99.90;;;;;;5034377;28;20222;-58
2021/09/20 04:19:10;;;;;;;10.83;8.50;;;10.60;1.00;;;;;;5034685;28;20202;-58
2021/09/20 04:21:36;;;;;;;12.67;8.60;;;10.60;1.00;;;;;;5034900;28;20206;-60
2021/09/20 04:24:03;;;;;;;10.27;8.17;;;10.70;1.00;;;;;;5011982;28;20238;-57
2021/09/20 04:26:30;;;;;;;9.97;8.13;;;10.70;1.00;;;;;;5015739;28;20232;-53
2021/09/20 04:28:56;;;;;;;10.43;8.10;;;10.80;1.00;;;;;;5015018;28;20211;-58
2021/09/20 04:31:23;;;;;;;9.80;7.87;;;10.70;1.00;;;;;;5014700;28;20785;-51
2021/09/20 04:33:51;;;;;;;10.30;8.27;;;10.80;1.00;;;;;;5014734;28;20207;-65
2021/09/20 04:36:18;;;;;;;10.23;9.13;;;10.70;99.90;;;;;;5030360;28;20232;-59
2021/09/20 04:38:44;;;;;;;10.57;8.03;;;10.50;1.00;;;;;;5034718;28;20256;-59
2021/09/20 04:41:11;;;;;;;11.53;8.70;;;10.50;1.00;;;;;;5034682;28;20198;-60
2021/09/20 04:43:38;;;;;;;12.57;8.30;;;10.50;1.00;;;;;;5033574;28;20209;-57
2021/09/20 04:46:04;;;;;;;11.87;9.10;;;10.50;1.00;;;;;;5025208;28;20283;-61
2021/09/20 04:48:31;;;;;;;13.13;8.67;;;10.60;1.00;;;;;;5015539;28;20604;-61
2021/09/20 04:50:59;;;;;;;10.97;8.23;;;10.60;1.00;;;;;;5014675;28;20226;-60
2021/09/20 04:53:26;;;;;;;10.77;8.70;;;10.60;1.00;;;;;;5015572;28;20210;-61
2021/09/20 04:55:52;;;;;;;10.63;8.70;;;10.60;1.00;;;;;;5015319;28;20215;-61
2021/09/20 04:58:19;;;;;;;10.53;8.20;;;10.60;1.00;;;;;;5014999;28;20714;-61
2021/09/20 05:00:46;;;;;;;12.33;9.80;;;10.60;1.00;;;;;;5014372;28;20207;-60
2021/09/20 05:03:13;;;;;;;12.77;10.17;;;10.70;1.00;;;;;;5014327;28;20207;-59
2021/09/20 05:05:39;;;;;;;10.87;8.73;;;10.70;99.90;;;;;;5013268;28;20279;-61
2021/09/20 05:08:08;;;;;;;10.27;8.40;;;10.70;99.90;;;;;;5014181;28;20230;-61
2021/09/20 05:10:35;;;;;;;12.47;8.63;;;10.80;99.90;;;;;;5014258;28;20649;-59
2021/09/20 05:13:01;;;;;;;11.60;9.40;;;10.70;99.90;;;;;;5014363;28;20736;-61
2021/09/20 05:15:28;;;;;;;11.93;8.57;;;10.70;99.90;;;;;;5013602;28;20268;-60
2021/09/20 05:17:55;;;;;;;11.40;9.00;;;10.70;99.90;;;;;;5013890;28;20223;-64
2021/09/20 05:20:22;;;;;;;10.37;8.60;;;10.70;99.90;;;;;;5012118;28;20222;-67
2021/09/20 05:22:49;;;;;;;13.47;8.80;;;10.70;99.90;;;;;;5013870;28;20211;-63
2021/09/20 05:25:17;;;;;;;12.03;8.97;;;10.80;99.90;;;;;;5013280;28;20218;-65
2021/09/20 05:27:44;;;;;;;10.70;8.37;;;10.70;99.90;;;;;;5013686;28;20252;-62
2021/09/20 05:30:12;;;;;;;12.67;8.63;;;10.70;99.90;;;;;;5010123;28;20199;-60
2021/09/20 05:32:39;;;;;;;10.67;8.50;;;10.70;99.90;;;;;;5028906;28;20284;-63
2021/09/20 05:35:06;;;;;;;14.00;8.67;;;10.80;99.90;;;;;;5026286;28;20206;-61
2021/09/20 05:37:33;;;;;;;10.73;8.20;;;10.80;99.90;;;;;;5032703;28;20732;-61
2021/09/20 05:40:00;;;;;;;10.30;8.57;;;10.80;99.90;;;;;;5033143;28;20202;-61
2021/09/20 05:42:28;;;;;;;10.27;8.23;;;10.80;99.90;;;;;;5032642;28;20214;-61
2021/09/20 05:44:55;;;;;;;10.33;7.90;;;10.90;99.90;;;;;;5032589;28;20217;-62
2021/09/20 05:47:21;;;;;;;10.40;8.67;;;10.80;99.90;;;;;;5032534;28;20230;-62
2021/09/20 05:49:48;;;;;;;12.27;9.50;;;10.80;99.90;;;;;;5032885;28;20674;-60
2021/09/20 05:52:15;;;;;;;11.03;8.57;;;10.80;99.90;;;;;;5022666;28;20292;-60
2021/09/20 05:54:41;;;;;;;11.10;9.27;;;10.80;99.90;;;;;;5012775;28;20218;-63
2021/09/20 05:57:08;;;;;;;16.80;10.90;;;10.80;99.90;;;;;;5012649;28;20234;-63
2021/09/20 05:59:36;;;;;;;15.00;9.43;;;10.80;99.90;;;;;;5012527;28;20211;-64
2021/09/20 06:02:03;;;;;;;10.73;9.07;;;10.80;99.90;;;;;;5012438;28;20215;-64
2021/09/20 06:04:30;;;;;;;12.27;8.80;;;10.80;99.90;;;;;;5012828;28;20211;-64
2021/09/20 06:06:56;;;;;;;12.97;9.67;;;10.90;99.90;;;;;;5012508;28;20230;-63
2021/09/20 06:09:23;;;;;;;12.80;9.90;;;10.90;99.90;;;;;;5012766;28;20251;-64
2021/09/20 06:11:50;;;;;;;13.50;9.20;;;10.90;99.90;;;;;;5012193;28;20219;-59
2021/09/20 06:14:17;;;;;;;10.83;9.30;;;10.90;99.90;;;;;;5012241;28;20207;-63
2021/09/20 06:16:45;;;;;;;11.87;9.47;;;11.00;99.90;;;;;;5012372;28;20230;-63
2021/09/20 06:19:11;;;;;;;12.23;9.53;;;11.00;99.90;;;;;;5012600;28;20207;-63
2021/09/20 06:21:38;;;;;;;11.93;9.70;;;11.00;99.90;;;;;;5012137;28;20203;-64
2021/09/20 06:24:05;;;;;;;12.57;9.13;;;11.00;99.90;;;;;;5012661;28;20211;-62
2021/09/20 06:26:32;;;;;;;11.20;9.83;;;11.10;59.70;;;;;;5021175;28;20222;-61
2021/09/20 06:28:58;;;;;;;10.63;9.23;;;11.10;53.80;;;;;;5031836;28;20206;-60
2021/09/20 06:31:25;;;;;;;10.63;8.73;;;11.20;6.60;;;;;;5031715;28;20230;-60
2021/09/20 06:33:53;;;;;;;11.33;9.20;;;11.20;4.90;;;;;;5032149;28;20203;-65
2021/09/20 06:36:20;;;;;;;13.17;10.20;;;11.30;99.90;;;;;;5031552;28;20646;-66
2021/09/20 06:38:46;;;;;;;12.33;9.53;;;11.50;1.00;;;;;;5031978;28;20650;-63
2021/09/20 06:41:13;;;;;;;10.97;8.27;;;11.60;1.00;;;;;;5031555;28;20206;-64
2021/09/20 06:43:40;;;;;;;11.70;9.80;;;11.70;1.00;;;;;;5031443;28;20610;-63
2021/09/20 06:46:06;;;;;;;11.93;9.00;;;11.70;1.00;;;;;;5031484;28;20241;-65
2021/09/20 06:48:33;;;;;;;10.27;9.13;;;11.70;1.00;;;;;;5031971;28;20221;-61
2021/09/20 06:51:01;;;;;;;11.63;8.93;;;11.70;1.00;;;;;;5031521;28;20217;-62
2021/09/20 06:53:28;;;;;;;13.03;9.17;;;11.70;1.00;;;;;;5031755;28;20578;-62
2021/09/20 06:55:55;;;;;;;14.10;9.53;;;11.60;1.00;;;;;;5031144;28;20697;-61
2021/09/20 06:58:21;;;;;;;12.40;9.73;;;11.60;1.00;;;;;;5031587;28;20214;-61
2021/09/20 07:00:48;;;;;;;12.63;8.87;;;11.60;1.00;;;;;;5031391;28;20206;-61
2021/09/20 07:03:14;;;;;;;11.67;9.40;;;11.70;1.00;;;;;;5031699;28;20206;-60
2021/09/20 07:05:42;;;;;;;10.40;8.77;;;11.70;1.00;;;;;;5030925;28;20210;-63
2021/09/20 07:08:10;;;;;;;11.20;9.23;;;11.70;1.00;;;;;;5031380;28;20612;-62
2021/09/20 07:10:36;;;;;;;11.83;9.00;;;11.80;1.00;;;;;;5031030;28;20218;-57
2021/09/20 07:13:09;;;;;;;11.03;8.90;;;11.80;1.00;;;;;;5031619;28;20226;-64
2021/09/20 07:15:35;;;;;;;13.40;8.37;;;11.90;1.00;;;;;;5031106;28;20229;-62
2021/09/20 07:18:02;;;;;;;10.27;8.67;;;11.90;1.00;;;;;;5031415;28;20240;-62
2021/09/20 07:20:29;;;;;;;13.57;9.33;;;11.90;1.00;;;;;;5031080;28;20781;-62
2021/09/20 07:22:56;;;;;;;11.20;8.27;;;11.90;1.00;;;;;;5031188;28;20260;-62
2021/09/20 07:25:24;;;;;;;11.50;8.70;;;12.00;1.00;;;;;;5031160;28;20241;-59
2021/09/20 07:27:51;;;;;;;11.83;8.53;;;12.00;1.00;;;;;;5031471;28;20257;-62
2021/09/20 07:30:17;;;;;;;14.03;9.70;;;12.10;1.00;;;;;;5031195;28;20206;-63
2021/09/20 07:32:45;;;;;;;10.20;8.73;;;12.10;1.00;;;;;;5031220;28;20276;-60
2021/09/20 07:35:13;;;;;;;11.23;8.23;;;12.10;1.00;;;;;;5030737;28;20249;-61
2021/09/20 07:37:39;;;;;;;12.27;8.77;;;12.20;1.00;;;;;;5030863;28;20226;-59
2021/09/20 07:40:07;;;;;;;11.13;8.97;;;12.20;1.00;;;;;;5031423;28;20210;-61
2021/09/20 07:42:35;;;;;;;10.13;7.93;;;12.30;1.00;;;;;;5031122;28;20204;-61
2021/09/20 07:45:02;;;;;;;11.03;8.00;;;12.40;1.00;;;;;;5030663;28;20219;-61
2021/09/20 07:47:28;;;;;;;8.83;6.97;;;12.50;99.90;;;;;;5030850;28;20758;-61
2021/09/20 07:49:55;;;;;;;7.83;6.93;;;12.60;99.90;;;;;;5031206;28;20416;-61
2021/09/20 07:52:21;;;;;;;8.53;7.37;;;12.60;99.90;;;;;;5030412;28;20226;-64
2021/09/20 07:54:48;;;;;;;8.30;6.70;;;12.70;99.90;;;;;;5031134;28;20608;-66
2021/09/20 07:57:15;;;;;;;9.47;7.50;;;12.80;99.90;;;;;;5031143;28;20237;-66
2021/09/20 07:59:43;;;;;;;10.10;7.82;;;12.90;99.90;;;;;;5030178;28;20445;-65
2021/09/20 08:02:09;;;;;;;10.43;7.33;;;12.90;99.90;;;;;;5030908;28;20199;-62
2021/09/20 08:04:37;;;;;;;8.20;7.00;;;13.00;99.90;;;;;;5030568;28;20218;-62
2021/09/20 08:07:04;;;;;;;9.03;7.37;;;13.10;99.90;;;;;;5012111;28;20997;-63
2021/09/20 08:09:30;;;;;;;10.93;8.17;;;13.10;99.90;;;;;;5025677;28;20205;-63
2021/09/20 08:11:57;;;;;;;9.50;7.07;;;13.20;99.90;;;;;;5031048;28;20229;-62
2021/09/20 08:14:24;;;;;;;11.30;7.17;;;13.30;99.90;;;;;;5030845;28;20736;-64
2021/09/20 08:16:52;;;;;;;8.60;6.67;;;13.40;99.90;;;;;;5030830;28;20272;-64
2021/09/20 08:19:19;;;;;;;7.57;6.47;;;13.50;99.90;;;;;;5033054;28;20251;-63
2021/09/20 08:21:46;;;;;;;7.60;6.17;;;13.70;99.90;;;;;;5034231;28;20221;-66
2021/09/20 08:24:13;;;;;;;7.43;6.07;;;13.70;99.90;;;;;;5034755;28;20208;-66
2021/09/20 08:26:40;;;;;;;7.23;6.40;;;13.80;99.90;;;;;;5034276;28;20646;-66
2021/09/20 08:29:06;;;;;;;7.97;6.23;;;13.90;99.90;;;;;;5034496;28;20261;-64
2021/09/20 08:31:33;;;;;;;6.80;6.00;;;13.90;99.90;;;;;;5034013;28;20206;-66
2021/09/20 08:34:01;;;;;;;10.77;5.93;;;14.00;99.90;;;;;;5034114;28;20622;-63
2021/09/20 08:36:28;;;;;;;8.23;6.00;;;14.00;99.90;;;;;;5033820;28;20280;-63
2021/09/20 08:38:55;;;;;;;6.70;5.93;;;14.10;99.90;;;;;;5034609;28;20630;-63
2021/09/20 08:41:22;;;;;;;8.57;6.00;;;14.10;99.90;;;;;;5034061;28;20607;-63
2021/09/20 08:43:49;;;;;;;10.70;7.97;;;14.20;99.90;;;;;;5034534;28;20233;-61
2021/09/20 08:48:52;;;;;;;7.77;5.80;;;14.40;99.90;;;;;;5111854;22;20740;-64
2021/09/20 08:51:20;;;;;;;8.27;5.70;;;14.50;99.90;;;;;;5017807;28;20198;-63
2021/09/20 08:53:49;;;;;;;6.53;5.70;;;14.40;99.90;;;;;;5014629;28;20231;-65
2021/09/20 08:56:17;;;;;;;7.70;6.07;;;14.50;99.90;;;;;;5014904;28;20266;-67
2021/09/20 08:58:44;;;;;;;6.40;5.60;;;14.60;99.90;;;;;;5015798;28;20206;-63
2021/09/20 09:01:10;;;;;;;6.27;5.20;;;14.60;99.90;;;;;;5041238;28;20205;-63
2021/09/20 09:03:37;;;;;;;7.40;5.83;;;14.60;99.90;;;;;;5052970;28;20198;-64
2021/09/20 09:06:04;;;;;;;6.80;6.10;;;14.60;99.90;;;;;;5053483;28;20240;-62
2021/09/20 09:08:37;;;;;;;10.83;6.80;;;14.70;99.90;;;;;;5053762;28;20303;-62
2021/09/20 09:11:05;;;;;;;6.63;5.93;;;14.80;99.90;;;;;;5053563;28;20560;-62
2021/09/20 09:13:35;;;;;;;6.83;5.70;;;15.00;99.90;;;;;;5052707;28;20570;-63
2021/09/20 09:16:13;;;;;;;7.27;5.53;;;15.10;99.90;;;;;;5053165;28;20205;-64
2021/09/20 09:19:00;;;;;;;7.27;5.67;;;15.10;99.90;;;;;;5053553;28;20301;-63
2021/09/20 09:21:29;;;;;;;6.80;6.10;;;15.10;99.90;;;;;;5052814;28;20570;-64
2021/09/20 09:24:01;;;;;;;6.90;6.20;;;15.20;99.90;;;;;;5053028;28;20778;-63
2021/09/20 09:26:28;;;;;;;5.67;5.03;;;15.20;99.90;;;;;;5052651;28;20602;-62
2021/09/20 09:29:06;;;;;;;7.43;6.13;;;15.20;99.90;;;;;;5052928;28;20586;-63
2021/09/20 09:31:34;;;;;;;7.87;5.70;;;15.30;99.90;;;;;;5052794;28;20220;-63
2021/09/20 09:34:15;;;;;;;6.40;5.73;;;15.30;99.90;;;;;;5025115;28;20294;-63
2021/09/20 09:36:42;;;;;;;6.53;5.47;;;15.30;99.90;;;;;;5013079;28;20313;-63
2021/09/20 09:39:11;;;;;;;11.47;5.37;;;15.30;99.90;;;;;;5013313;28;20306;-63
2021/09/20 09:41:42;;;;;;;8.93;5.80;;;15.50;99.90;;;;;;5012871;28;20206;-63
2021/09/20 09:44:12;;;;;;;7.20;6.50;;;15.40;99.90;;;;;;5013346;28;20214;-62
2021/09/20 09:46:40;;;;;;;6.27;5.13;;;15.40;99.90;;;;;;5012693;28;20223;-62
2021/09/20 09:49:15;;;;;;;7.73;5.63;;;15.40;99.90;;;;;;5012922;28;20277;-63
2021/09/20 09:52:00;;;;;;;6.27;5.67;;;15.30;99.90;;;;;;5012818;28;20214;-63
2021/09/20 09:54:29;;;;;;;6.87;6.17;;;15.40;99.90;;;;;;5013071;28;20230;-61
2021/09/20 09:57:15;;;;;;;6.73;5.40;;;15.50;99.90;;;;;;5012817;28;20223;-62
2021/09/20 09:59:43;;;;;;;6.63;5.70;;;15.60;99.90;;;;;;5012053;28;20216;-62
2021/09/20 10:02:18;;;;;;;7.43;5.50;;;15.70;99.90;;;;;;5012914;28;20207;-60
2021/09/20 10:04:56;;;;;;;7.47;5.43;;;15.60;99.90;;;;;;5012283;28;20237;-62
2021/09/20 10:07:27;;;;;;;7.67;5.90;;;15.60;99.90;;;;;;5012530;28;20258;-63
2021/09/20 10:09:57;;;;;;;5.90;5.30;;;15.70;99.90;;;;;;5012313;28;20211;-63
2021/09/20 10:12:26;;;;;;;7.13;5.37;;;15.90;99.90;;;;;;5023723;28;20226;-63
2021/09/20 10:14:56;;;;;;;6.07;5.43;;;16.00;99.90;;;;;;5051679;28;20217;-64
2021/09/20 10:17:23;;;;;;;6.77;5.20;;;16.10;99.90;;;;;;5052104;28;20226;-64
2021/09/20 10:19:50;;;;;;;8.57;5.57;;;16.00;99.90;;;;;;5051851;28;20209;-63
2021/09/20 10:22:18;;;;;;;6.77;5.37;;;16.00;99.90;;;;;;5051592;28;20685;-64
2021/09/20 10:24:47;;;;;;;5.87;5.17;;;16.10;99.90;;;;;;5051678;28;20210;-66
2021/09/20 10:27:18;;;;;;;6.00;5.40;;;16.10;99.90;;;;;;5052101;28;20226;-63
2021/09/20 10:29:49;;;;;;;6.47;5.50;;;16.10;99.90;;;;;;5051926;28;20630;-63
2021/09/20 10:32:16;;;;;;;9.93;7.77;;;16.20;99.90;;;;;;5051502;28;20218;-61
2021/09/20 10:34:43;;;;;;;6.13;5.40;;;16.30;99.90;;;;;;5051255;28;20628;-63
2021/09/20 10:37:12;;;;;;;7.07;5.53;;;16.30;99.90;;;;;;5051519;28;20222;-62
2021/09/20 10:39:53;;;;;;;5.47;4.97;;;16.30;99.90;;;;;;5051628;28;20616;-62
2021/09/20 10:42:57;;;;;;;7.30;5.43;;;16.40;99.90;;;;;;5050691;28;20243;-63
2021/09/20 10:46:01;;;;;;;7.20;5.40;;;16.50;99.90;;;;;;5051166;28;20209;-64
2021/09/20 10:48:53;;;;;;;6.30;5.47;;;16.50;99.90;;;;;;5051414;28;20670;-65
2021/09/20 10:51:27;;;;;;;6.93;5.33;;;16.50;99.90;;;;;;5051090;28;20281;-63
2021/09/20 10:54:16;;;;;;;7.93;5.70;;;16.60;99.90;;;;;;5051331;28;20268;-64
2021/09/20 10:56:44;;;;;;;6.97;5.23;;;16.60;99.90;;;;;;5051309;28;20228;-63
2021/09/20 10:59:34;;;;;;;5.97;4.97;;;16.60;99.90;;;;;;5051384;28;20213;-63
2021/09/20 11:02:12;;;;;;;8.30;5.67;;;16.80;99.90;;;;;;5051223;28;20201;-63
2021/09/20 11:04:41;;;;;;;6.07;5.17;;;16.80;99.90;;;;;;5051051;28;20625;-64
2021/09/20 11:07:15;;;;;;;8.23;5.70;;;16.90;99.90;;;;;;5051587;28;20332;-64
2021/09/20 11:09:46;;;;;;;7.33;5.87;;;17.00;99.90;;;;;;5051300;28;20291;-64
2021/09/20 11:12:15;;;;;;;7.73;5.27;;;17.00;99.90;;;;;;5050852;28;20735;-64
2021/09/20 11:14:49;;;;;;;6.13;5.27;;;16.80;99.90;;;;;;5050753;28;20213;-64
2021/09/20 11:17:28;;;;;;;6.13;5.43;;;16.90;99.90;;;;;;5051221;28;20316;-64
2021/09/20 11:19:58;;;;;;;5.83;4.60;;;16.60;99.90;;;;;;5051000;28;20228;-65
2021/09/20 11:22:28;;;;;;;8.13;5.73;;;16.50;99.90;;;;;;5051101;28;20201;-65
2021/09/20 11:24:56;;;;;;;8.70;5.57;;;16.50;99.90;;;;;;5050493;28;20212;-65
2021/09/20 11:27:29;;;;;;;8.73;5.73;;;16.70;99.90;;;;;;5051280;28;20851;-68
2021/09/20 11:29:59;;;;;;;7.53;5.47;;;16.90;99.90;;;;;;5051260;28;20216;-63
2021/09/20 11:32:27;;;;;;;6.90;5.53;;;17.00;99.90;;;;;;5051009;28;20208;-63
2021/09/20 11:34:56;;;;;;;7.00;5.80;;;17.10;99.90;;;;;;5050714;28;20220;-64
2021/09/20 11:37:25;;;;;;;6.10;5.30;;;17.30;99.90;;;;;;5050510;28;20233;-63
2021/09/20 11:39:54;;;;;;;6.23;5.63;;;17.30;99.90;;;;;;5033642;28;20207;-65
2021/09/20 11:42:23;;;;;;;6.40;5.50;;;17.10;99.90;;;;;;5010992;28;20707;-64
2021/09/20 11:44:52;;;;;;;8.77;5.90;;;17.10;99.90;;;;;;5011027;28;20721;-66
2021/09/20 11:47:23;;;;;;;6.93;5.60;;;17.40;99.90;;;;;;5011049;28;20234;-65
2021/09/20 11:49:59;;;;;;;8.37;6.10;;;17.50;99.90;;;;;;5011090;28;20210;-65
2021/09/20 11:52:32;;;;;;;10.03;7.13;;;17.40;99.90;;;;;;5011928;28;20679;-65
2021/09/20 11:54:58;;;;;;;9.30;6.43;;;17.40;99.90;;;;;;5014917;28;20632;-65
2021/09/20 11:57:27;;;;;;;7.93;5.83;;;17.20;99.90;;;;;;5014724;28;20835;-64
2021/09/20 11:59:59;;;;;;;7.00;6.17;;;17.00;99.90;;;;;;5015090;28;20214;-65
2021/09/20 12:02:36;;;;;;;7.73;6.20;;;17.00;99.90;;;;;;5014644;28;20211;-64
2021/09/20 12:05:05;;;;;;;9.47;6.17;;;17.10;99.90;;;;;;5014594;28;20210;-64
2021/09/20 12:07:33;;;;;;;6.90;5.20;;;17.10;99.90;;;;;;5014713;28;20723;-64
2021/09/20 12:10:02;;;;;;;8.43;5.90;;;17.30;99.90;;;;;;5014837;28;20207;-65
2021/09/20 12:12:31;;;;;;;6.40;5.80;;;17.40;99.90;;;;;;5014493;28;20614;-65
2021/09/20 12:15:00;;;;;;;9.13;5.70;;;17.50;99.90;;;;;;5014463;28;20764;-66
2021/09/20 12:17:48;;;;;;;7.73;6.03;;;17.30;99.90;;;;;;5051510;28;20275;-66
2021/09/20 12:20:16;;;;;;;9.50;6.00;;;17.30;99.90;;;;;;5048516;28;20231;-66
2021/09/20 12:22:44;;;;;;;7.13;6.00;;;16.90;99.90;;;;;;5033200;28;20205;-66
2021/09/20 12:25:27;;;;;;;10.50;6.30;;;16.70;99.90;;;;;;5053707;28;20217;-66
2021/09/20 12:27:55;;;;;;;10.37;6.57;;;16.40;99.90;;;;;;5054361;28;20225;-65
2021/09/20 12:30:24;;;;;;;6.70;5.80;;;16.30;99.90;;;;;;5053893;28;20890;-64
2021/09/20 12:33:03;;;;;;;7.70;6.10;;;16.30;99.90;;;;;;5053953;28;20206;-64
2021/09/20 12:35:30;;;;;;;7.90;5.70;;;16.10;99.90;;;;;;5053470;28;20205;-63
2021/09/20 12:38:28;;;;;;;8.07;5.67;;;15.90;99.90;;;;;;5054028;28;20283;-64
2021/09/20 12:40:57;;;;;;;5.97;5.37;;;15.80;99.90;;;;;;5048771;28;20867;-64
2021/09/20 12:43:28;;;;;;;8.30;5.20;;;15.90;99.90;;;;;;5052563;28;20208;-65
2021/09/20 12:45:55;;;;;;;9.43;5.77;;;15.90;99.90;;;;;;5053348;28;20205;-64
2021/09/20 12:48:35;;;;;;;8.87;4.80;;;16.20;99.90;;;;;;5053743;28;20225;-65
2021/09/20 12:51:05;;;;;;;7.60;5.37;;;16.50;99.90;;;;;;5053520;28;20244;-65
2021/09/20 12:53:37;;;;;;;9.00;4.83;;;16.60;99.90;;;;;;5053594;28;20236;-65